TimeIST,TemperatureF,Dew PointF,Humidity,Sea Level PressureIn,VisibilityMPH,Wind Direction,Wind SpeedMPH,Gust SpeedMPH,PrecipitationIn,Events,Conditions,WindDirDegrees,DateUTC
12:00 AM,55.4,53.6,94,29.98,6.2,SSW,6.9,-,N/A,,Mostly Cloudy,210,2013-10-04 23:00:00
12:30 AM,55.4,53.6,94,29.98,6.2,SW,4.6,-,N/A,,Mostly Cloudy,220,2013-10-04 23:30:00
1:00 AM,54,52,90,29.99,12,SSW,4.5,,,Rain,Light Rain Showers,200,2013-10-05 00:00:00
1:00 AM,55.4,51.8,88,29.98,6.2,SSW,4.6,-,N/A,,Scattered Clouds,200,2013-10-05 00:00:00
1:30 AM,53.6,51.8,94,29.98,6.2,South,6.9,-,N/A,,Partly Cloudy,190,2013-10-05 00:30:00
2:00 AM,53.6,51.8,94,29.98,6.2,South,6.9,-,N/A,,Scattered Clouds,170,2013-10-05 01:00:00
2:30 AM,53.6,51.8,94,30.01,6.2,South,5.8,-,N/A,,Mostly Cloudy,190,2013-10-05 01:30:00
3:00 AM,53.6,51.8,94,30.01,6.2,South,6.9,-,N/A,,Mostly Cloudy,190,2013-10-05 02:00:00
3:30 AM,53.6,51.8,94,30.01,6.2,South,6.9,-,N/A,,Mostly Cloudy,170,2013-10-05 02:30:00
4:00 AM,55.4,51.8,88,30.01,6.2,South,5.8,-,N/A,,Mostly Cloudy,170,2013-10-05 03:00:00
4:30 AM,55.4,51.8,88,30.01,6.2,South,5.8,-,N/A,,Mostly Cloudy,170,2013-10-05 03:30:00
5:00 AM,55.4,51.8,88,30.01,6.2,SSE,6.9,-,N/A,,Mostly Cloudy,160,2013-10-05 04:00:00
5:30 AM,55.4,53.6,94,30.01,6.2,SSE,5.8,-,N/A,,Mostly Cloudy,160,2013-10-05 04:30:00
6:00 AM,55.4,53.6,94,30.01,6.2,South,6.9,-,N/A,Rain,Light Rain,180,2013-10-05 05:00:00
6:30 AM,55.4,53.6,94,30.04,6.2,South,8.1,-,N/A,,Mostly Cloudy,170,2013-10-05 05:30:00
7:00 AM,55,53,92,30.05,12,SSE,8.9,,,Rain,Light Rain,150,2013-10-05 06:00:00
7:00 AM,55.4,53.6,94,30.04,6.2,SSE,8.1,-,N/A,,Mostly Cloudy,150,2013-10-05 06:00:00
7:30 AM,55.4,53.6,94,30.04,6.2,SSE,6.9,-,N/A,,Mostly Cloudy,160,2013-10-05 06:30:00
8:00 AM,55.4,53.6,94,30.06,6.2,South,5.8,-,N/A,,Mostly Cloudy,170,2013-10-05 07:00:00
8:30 AM,55.4,53.6,94,30.06,6.2,South,6.9,-,N/A,,Scattered Clouds,170,2013-10-05 07:30:00
9:00 AM,55.4,53.6,94,30.06,6.2,South,6.9,-,N/A,,Scattered Clouds,170,2013-10-05 08:00:00
9:30 AM,57.2,53.6,88,30.09,6.2,South,5.8,-,N/A,,Partly Cloudy,180,2013-10-05 08:30:00
10:00 AM,59.0,55.4,88,30.09,6.2,South,6.9,-,N/A,,Mostly Cloudy,180,2013-10-05 09:00:00
10:30 AM,60.8,55.4,82,30.09,6.2,South,6.9,-,N/A,,Mostly Cloudy,190,2013-10-05 09:30:00
11:00 AM,62.6,55.4,77,30.09,6.2,South,9.2,-,N/A,,Partly Cloudy,190,2013-10-05 10:00:00
11:30 AM,62.6,55.4,77,30.09,6.2,SSW,12.7,-,N/A,,Partly Cloudy,210,2013-10-05 10:30:00
12:00 PM,64.4,55.4,73,30.12,6.2,SSW,12.7,-,N/A,,Partly Cloudy,210,2013-10-05 11:00:00
12:30 PM,64.4,53.6,68,30.09,6.2,South,13.8,-,N/A,,Partly Cloudy,190,2013-10-05 11:30:00
1:00 PM,65,55,61,30.13,25,SW,13.4,,,,Partly Cloudy,220,2013-10-05 12:00:00
1:00 PM,66.2,55.4,68,30.12,6.2,SW,13.8,-,N/A,,Partly Cloudy,220,2013-10-05 12:00:00
1:30 PM,64.4,53.6,68,30.12,6.2,SSW,10.4,-,N/A,,Partly Cloudy,210,2013-10-05 12:30:00
2:00 PM,66.2,53.6,64,30.12,6.2,SSW,11.5,-,N/A,,Partly Cloudy,200,2013-10-05 13:00:00
2:30 PM,68.0,55.4,64,30.12,6.2,SSW,12.7,-,N/A,,Partly Cloudy,200,2013-10-05 13:30:00
3:00 PM,68.0,53.6,60,30.12,6.2,SSW,12.7,-,N/A,,Partly Cloudy,210,2013-10-05 14:00:00
3:30 PM,68.0,55.4,64,30.12,6.2,SSW,12.7,-,N/A,,Partly Cloudy,210,2013-10-05 14:30:00
4:00 PM,68.0,53.6,60,30.12,6.2,SSW,12.7,-,N/A,,Partly Cloudy,200,2013-10-05 15:00:00
4:30 PM,66.2,53.6,64,30.12,6.2,SSW,15.0,-,N/A,,Partly Cloudy,200,2013-10-05 15:30:00
5:00 PM,66.2,51.8,60,30.12,6.2,South,13.8,-,N/A,,Partly Cloudy,190,2013-10-05 16:00:00
5:30 PM,66.2,51.8,60,30.12,6.2,South,12.7,-,N/A,,Partly Cloudy,190,2013-10-05 16:30:00
6:00 PM,64.4,51.8,64,30.12,6.2,South,12.7,-,N/A,,Partly Cloudy,190,2013-10-05 17:00:00
6:30 PM,64.4,50.0,59,30.12,6.2,South,12.7,-,N/A,,Partly Cloudy,190,2013-10-05 17:30:00
7:00 PM,63,49,50,30.14,25,South,11.2,,,,Scattered Clouds,180,2013-10-05 18:00:00
7:00 PM,62.6,50.0,63,30.12,6.2,South,10.4,-,N/A,,Partly Cloudy,180,2013-10-05 18:00:00
7:30 PM,60.8,51.8,72,30.12,6.2,SSE,10.4,-,N/A,,Partly Cloudy,150,2013-10-05 18:30:00
8:00 PM,59.0,50.0,72,30.12,6.2,South,11.5,-,N/A,,Partly Cloudy,170,2013-10-05 19:00:00
8:30 PM,59.0,50.0,72,30.12,6.2,SSE,10.4,-,N/A,,Partly Cloudy,150,2013-10-05 19:30:00
9:00 PM,57.2,51.8,82,30.12,6.2,SSE,10.4,-,N/A,,Partly Cloudy,150,2013-10-05 20:00:00
9:30 PM,57.2,51.8,82,30.15,6.2,SE,9.2,-,N/A,,Partly Cloudy,140,2013-10-05 20:30:00
10:00 PM,57.2,51.8,82,30.15,6.2,SE,8.1,-,N/A,,Partly Cloudy,140,2013-10-05 21:00:00
10:30 PM,57.2,51.8,82,30.15,6.2,SSE,6.9,-,N/A,,Partly Cloudy,150,2013-10-05 21:30:00
11:00 PM,57.2,51.8,82,30.15,6.2,ESE,6.9,-,N/A,,Scattered Clouds,120,2013-10-05 22:00:00
11:30 PM,57.2,51.8,82,30.15,6.2,ESE,10.4,-,N/A,,Partly Cloudy,120,2013-10-05 22:30:00